createdAt,value
2017-08-15T00:00:34.301Z,17.16
2017-08-15T00:03:02.648Z,17.09
2017-08-15T00:05:30.975Z,17.14
2017-08-15T00:07:59.318Z,17.10
2017-08-15T00:10:28.400Z,16.87
2017-08-15T00:12:56.749Z,16.79
2017-08-15T00:15:25.062Z,16.95
2017-08-15T00:17:53.417Z,16.97
2017-08-15T00:20:21.774Z,16.91
2017-08-15T00:22:50.113Z,16.93
2017-08-15T00:25:18.922Z,16.76
2017-08-15T00:27:47.251Z,16.83
2017-08-15T00:30:15.594Z,16.87
2017-08-15T00:32:44.053Z,16.82
2017-08-15T00:35:13.187Z,16.71
2017-08-15T00:37:41.528Z,16.84
2017-08-15T00:40:09.852Z,16.68
2017-08-15T00:42:38.184Z,16.63
2017-08-15T00:45:07.267Z,16.63
2017-08-15T00:47:35.633Z,16.66
2017-08-15T00:50:03.966Z,16.68
2017-08-15T00:52:32.322Z,16.57
2017-08-15T00:55:01.419Z,16.52
2017-08-15T00:57:29.759Z,16.62
2017-08-15T00:59:58.095Z,16.58
2017-08-15T01:02:26.454Z,16.59
2017-08-15T01:04:55.562Z,16.50
2017-08-15T01:07:23.888Z,16.42
2017-08-15T01:09:52.214Z,16.28
2017-08-15T01:12:21.308Z,16.31
2017-08-15T01:14:49.627Z,16.40
2017-08-15T01:17:18.359Z,16.39
2017-08-15T01:19:46.689Z,16.36
2017-08-15T01:22:15.022Z,16.17
2017-08-15T01:24:44.124Z,16.17
2017-08-15T01:27:12.448Z,16.22
2017-08-15T01:29:41.052Z,16.22
2017-08-15T01:32:09.376Z,16.22
2017-08-15T01:34:37.752Z,16.31
2017-08-15T01:37:06.134Z,16.29
2017-08-15T01:39:34.454Z,16.27
2017-08-15T01:42:02.808Z,16.15
2017-08-15T01:44:31.152Z,16.15
2017-08-15T01:46:59.504Z,16.00
2017-08-15T01:49:27.834Z,15.94
2017-08-15T01:51:56.205Z,15.89
2017-08-15T01:54:25.323Z,15.96
2017-08-15T01:56:53.695Z,15.94
2017-08-15T01:59:22.048Z,15.92
2017-08-15T02:01:50.398Z,15.86
2017-08-15T02:04:18.807Z,15.79
2017-08-15T02:06:47.170Z,15.82
2017-08-15T02:09:17.342Z,15.87
2017-08-15T02:11:45.753Z,16.00
2017-08-15T02:14:14.128Z,15.96
2017-08-15T02:16:42.475Z,15.90
2017-08-15T02:19:11.544Z,15.72
2017-08-15T02:21:39.909Z,15.68
2017-08-15T02:24:08.261Z,15.70
2017-08-15T02:26:36.638Z,15.67
2017-08-15T02:29:04.980Z,15.69
2017-08-15T02:31:33.331Z,15.67
2017-08-15T02:34:01.715Z,15.62
2017-08-15T02:36:30.523Z,15.53
2017-08-15T02:38:58.849Z,15.53
2017-08-15T02:41:27.167Z,15.55
2017-08-15T02:43:55.895Z,15.60
2017-08-15T02:46:24.221Z,15.70
2017-08-15T02:48:52.554Z,15.59
2017-08-15T02:51:20.885Z,15.57
2017-08-15T02:53:49.224Z,15.34
2017-08-15T02:56:17.849Z,15.53
2017-08-15T02:58:46.190Z,15.56
2017-08-15T03:01:14.527Z,15.47
2017-08-15T03:03:43.663Z,15.52
2017-08-15T03:06:12.908Z,15.43
2017-08-15T03:08:41.233Z,15.36
2017-08-15T03:11:09.570Z,15.31
2017-08-15T03:13:38.899Z,15.31
2017-08-15T03:16:07.986Z,15.36
2017-08-15T03:18:36.331Z,15.46
2017-08-15T03:21:04.658Z,15.47
2017-08-15T03:23:33.017Z,15.49
2017-08-15T03:26:02.120Z,15.49
2017-08-15T03:28:30.471Z,15.29
2017-08-15T03:30:58.827Z,15.25
2017-08-15T03:33:27.162Z,15.35
2017-08-15T03:35:56.279Z,15.36
2017-08-15T03:38:24.616Z,15.37
2017-08-15T03:40:52.965Z,15.20
2017-08-15T03:43:21.306Z,15.20
2017-08-15T03:45:49.660Z,15.27
2017-08-15T03:48:18.013Z,15.26
2017-08-15T03:50:46.335Z,15.27
2017-08-15T03:53:15.625Z,15.32
2017-08-15T03:55:43.966Z,15.32
2017-08-15T03:58:12.365Z,15.30
2017-08-15T04:00:40.692Z,15.31
2017-08-15T04:03:09.366Z,15.27
2017-08-15T04:05:37.706Z,15.23
2017-08-15T04:08:06.052Z,15.24
2017-08-15T04:10:34.397Z,15.20
2017-08-15T04:13:03.486Z,15.18
2017-08-15T04:15:31.836Z,15.19
2017-08-15T04:18:00.165Z,15.08
2017-08-15T04:20:28.512Z,15.11
2017-08-15T04:22:56.873Z,15.14
2017-08-15T04:25:25.263Z,15.10
2017-08-15T04:27:53.689Z,15.08
2017-08-15T04:30:22.022Z,15.09
2017-08-15T04:32:50.402Z,15.09
2017-08-15T04:35:18.739Z,15.12
2017-08-15T04:37:47.505Z,15.07
2017-08-15T04:40:15.845Z,15.00
2017-08-15T04:42:44.194Z,14.97
2017-08-15T04:45:12.934Z,14.98
2017-08-15T04:47:41.277Z,14.98
2017-08-15T04:50:09.609Z,15.05
2017-08-15T04:52:38.226Z,15.11
2017-08-15T04:55:06.571Z,15.15
2017-08-15T04:57:34.883Z,15.21
2017-08-15T05:00:03.238Z,15.10
2017-08-15T05:02:31.580Z,15.07
2017-08-15T05:04:59.933Z,14.91
2017-08-15T05:07:28.273Z,15.02
2017-08-15T05:09:56.626Z,14.97
2017-08-15T05:12:24.959Z,14.92
2017-08-15T05:14:53.304Z,14.90
2017-08-15T05:17:21.623Z,14.93
2017-08-15T05:19:50.378Z,15.00
2017-08-15T05:22:18.715Z,15.14
2017-08-15T05:24:47.051Z,15.13
2017-08-15T05:27:15.407Z,15.21
2017-08-15T05:29:44.508Z,15.28
2017-08-15T05:32:12.856Z,15.30
2017-08-15T05:34:41.192Z,15.36
2017-08-15T05:37:09.539Z,15.41
2017-08-15T05:39:38.638Z,15.40
2017-08-15T05:42:07.351Z,15.44
2017-08-15T05:44:35.667Z,15.47
2017-08-15T05:47:04.008Z,15.48
2017-08-15T05:49:32.454Z,15.64
2017-08-15T05:52:00.783Z,15.67
2017-08-15T05:54:29.129Z,15.70
2017-08-15T05:56:58.282Z,15.80
2017-08-15T05:59:26.660Z,15.81
2017-08-15T06:01:54.988Z,15.88
2017-08-15T06:04:23.349Z,16.09
2017-08-15T06:06:51.703Z,16.21
2017-08-15T06:09:20.439Z,16.31
2017-08-15T06:11:48.781Z,16.32
2017-08-15T06:14:17.121Z,16.48
2017-08-15T06:16:45.566Z,16.56
2017-08-15T06:19:13.893Z,16.69
2017-08-15T06:21:42.275Z,16.76
2017-08-15T06:24:10.611Z,16.86
2017-08-15T06:26:38.947Z,16.88
2017-08-15T06:29:07.258Z,16.98
2017-08-15T06:31:35.603Z,17.09
2017-08-15T06:34:03.929Z,17.20
2017-08-15T06:36:32.279Z,17.28
2017-08-15T06:39:00.609Z,17.37
2017-08-15T06:41:28.961Z,17.49
2017-08-15T06:43:58.049Z,17.55
2017-08-15T06:46:26.740Z,17.64
2017-08-15T06:48:55.065Z,17.69
2017-08-15T06:51:23.384Z,17.75
2017-08-15T06:53:52.500Z,17.81
2017-08-15T06:56:20.854Z,17.76
2017-08-15T06:58:49.204Z,17.79
2017-08-15T07:01:17.537Z,17.70
2017-08-15T07:03:46.669Z,17.74
2017-08-15T07:06:15.011Z,17.79
2017-08-15T07:08:43.370Z,17.84
2017-08-15T07:11:11.714Z,17.84
2017-08-15T07:13:40.087Z,17.91
2017-08-15T07:16:08.460Z,17.98
2017-08-15T07:18:36.813Z,18.04
2017-08-15T07:21:05.908Z,18.16
2017-08-15T07:23:34.606Z,18.22
2017-08-15T07:26:02.942Z,18.36
2017-08-15T07:28:31.263Z,18.46
2017-08-15T07:30:59.609Z,18.60
2017-08-15T07:33:27.945Z,18.74
2017-08-15T07:35:56.282Z,18.85
2017-08-15T07:38:24.611Z,18.98
2017-08-15T07:40:52.960Z,19.13
2017-08-15T07:43:21.296Z,19.25
2017-08-15T07:45:49.664Z,19.37
2017-08-15T07:48:17.989Z,19.43
2017-08-15T07:50:47.378Z,19.50
2017-08-15T07:53:15.701Z,19.55
2017-08-15T07:55:44.107Z,19.59
2017-08-15T07:58:12.518Z,19.62
2017-08-15T08:00:40.841Z,19.68
2017-08-15T08:03:09.197Z,19.77
2017-08-15T08:05:38.288Z,19.85
2017-08-15T08:08:06.631Z,19.97
2017-08-15T08:10:34.950Z,20.06
2017-08-15T08:13:04.109Z,20.14
2017-08-15T08:15:32.475Z,20.26
2017-08-15T08:18:00.819Z,20.38
2017-08-15T08:20:29.174Z,20.50
2017-08-15T08:22:57.501Z,20.59
2017-08-15T08:25:25.861Z,20.71
2017-08-15T08:27:54.198Z,20.84
2017-08-15T08:30:22.562Z,20.93
2017-08-15T08:32:50.889Z,21.06
2017-08-15T08:35:19.260Z,21.20
2017-08-15T08:37:47.608Z,21.36
2017-08-15T08:40:15.948Z,21.47
2017-08-15T08:42:44.308Z,21.57
2017-08-15T08:45:12.650Z,21.66
2017-08-15T08:47:41.085Z,21.74
2017-08-15T08:50:09.404Z,21.92
2017-08-15T08:52:37.800Z,22.05
2017-08-15T08:55:06.140Z,22.30
2017-08-15T08:57:34.484Z,22.43
2017-08-15T09:00:02.821Z,22.47
2017-08-15T09:02:31.184Z,22.53
2017-08-15T09:04:59.540Z,22.54
2017-08-15T09:07:27.876Z,22.66
2017-08-15T09:09:56.230Z,22.75
2017-08-15T09:12:24.577Z,22.88
2017-08-15T09:14:52.932Z,22.88
2017-08-15T09:17:21.264Z,22.88
2017-08-15T09:19:49.620Z,22.99
2017-08-15T09:22:17.947Z,23.02
2017-08-15T09:24:46.283Z,23.04
2017-08-15T09:27:14.628Z,23.05
2017-08-15T09:29:46.785Z,23.17
2017-08-15T09:32:15.938Z,23.21
2017-08-15T09:34:44.290Z,23.22
2017-08-15T09:37:12.640Z,23.30
2017-08-15T09:39:40.973Z,23.42
2017-08-15T09:42:09.714Z,23.50
2017-08-15T09:44:38.054Z,23.49
2017-08-15T09:47:06.387Z,23.55
2017-08-15T09:49:34.740Z,23.53
2017-08-15T09:52:03.834Z,23.58
2017-08-15T09:54:32.192Z,23.62
2017-08-15T09:57:00.508Z,23.62
2017-08-15T09:59:29.614Z,23.63
2017-08-15T10:01:57.937Z,23.56
2017-08-15T10:04:26.271Z,23.57
2017-08-15T10:06:55.355Z,23.47
2017-08-15T10:09:23.696Z,23.50
2017-08-15T10:11:52.029Z,23.54
2017-08-15T10:14:20.379Z,23.57
2017-08-15T10:16:48.734Z,23.58
2017-08-15T10:19:17.129Z,23.58
2017-08-15T10:21:45.473Z,23.61
2017-08-15T10:24:13.799Z,23.58
2017-08-15T10:26:42.139Z,23.62
2017-08-15T10:29:10.478Z,23.63
2017-08-15T10:31:38.820Z,23.69
2017-08-15T10:34:07.174Z,23.72
2017-08-15T10:36:35.539Z,23.72
2017-08-15T10:39:03.862Z,23.71
2017-08-15T10:41:32.218Z,23.71
2017-08-15T10:44:00.558Z,23.73
2017-08-15T10:46:28.902Z,23.72
2017-08-15T10:48:57.253Z,23.73
2017-08-15T10:51:25.619Z,23.73
2017-08-15T10:53:53.984Z,23.75
2017-08-15T10:56:22.310Z,23.71
2017-08-15T10:58:51.029Z,23.69
2017-08-15T11:01:19.402Z,23.68
2017-08-15T11:03:47.734Z,23.70
2017-08-15T11:06:16.078Z,23.71
2017-08-15T11:08:44.423Z,23.71
2017-08-15T11:11:12.779Z,23.74
2017-08-15T11:13:41.113Z,23.75
2017-08-15T11:16:09.465Z,23.64
2017-08-15T11:18:37.801Z,23.61
2017-08-15T11:21:06.157Z,23.52
2017-08-15T11:23:34.486Z,23.44
2017-08-15T11:26:02.834Z,23.41
2017-08-15T11:28:31.165Z,23.33
2017-08-15T11:30:59.548Z,23.32
2017-08-15T11:33:27.939Z,23.22
2017-08-15T11:35:57.049Z,23.10
2017-08-15T11:38:25.396Z,23.08
2017-08-15T11:40:54.116Z,23.02
2017-08-15T11:43:22.460Z,22.98
2017-08-15T11:45:50.809Z,22.86
2017-08-15T11:48:19.165Z,22.74
2017-08-15T11:50:47.496Z,22.54
2017-08-15T11:53:15.866Z,22.40
2017-08-15T11:55:44.207Z,22.33
2017-08-15T11:58:12.575Z,22.10
2017-08-15T12:00:40.930Z,22.01
2017-08-15T12:03:09.280Z,21.77
2017-08-15T12:05:37.631Z,21.79
2017-08-15T12:08:05.948Z,21.88
2017-08-15T12:10:34.303Z,21.87
2017-08-15T12:13:02.645Z,21.80
2017-08-15T12:15:31.766Z,21.92
2017-08-15T12:18:00.096Z,22.03
2017-08-15T12:20:28.445Z,22.08
2017-08-15T12:22:56.783Z,22.24
2017-08-15T12:25:25.874Z,22.30
2017-08-15T12:27:54.240Z,22.33
2017-08-15T12:30:22.568Z,22.33
2017-08-15T12:32:50.916Z,22.21
2017-08-15T12:35:19.252Z,22.32
2017-08-15T12:37:48.087Z,22.31
2017-08-15T12:40:16.413Z,22.38
2017-08-15T12:42:44.750Z,22.38
2017-08-15T12:45:13.095Z,22.49
2017-08-15T12:47:41.442Z,22.54
2017-08-15T12:50:09.805Z,22.49
2017-08-15T12:52:38.137Z,22.52
2017-08-15T12:55:06.486Z,22.52
2017-08-15T12:57:34.824Z,22.63
2017-08-15T13:00:03.161Z,22.77
2017-08-15T13:02:31.523Z,22.91
2017-08-15T13:04:59.862Z,22.97
2017-08-15T13:07:28.226Z,23.06
2017-08-15T13:09:57.347Z,23.16
2017-08-15T13:12:25.683Z,23.18
2017-08-15T13:14:54.098Z,23.17
2017-08-15T13:17:22.429Z,23.21
2017-08-15T13:19:50.783Z,23.20
2017-08-15T13:22:19.168Z,23.24
2017-08-15T13:24:47.491Z,23.19
2017-08-15T13:27:16.613Z,23.20
2017-08-15T13:29:44.965Z,23.31
2017-08-15T13:32:13.326Z,23.37
2017-08-15T13:34:41.674Z,23.38
2017-08-15T13:37:10.028Z,23.35
2017-08-15T13:39:39.122Z,23.39
2017-08-15T13:42:07.473Z,23.38
2017-08-15T13:44:35.906Z,23.38
2017-08-15T13:47:04.265Z,23.27
2017-08-15T13:49:32.602Z,23.24
2017-08-15T13:52:00.952Z,23.26
2017-08-15T13:54:29.339Z,23.34
2017-08-15T13:56:57.666Z,23.39
2017-08-15T13:59:26.795Z,23.44
2017-08-15T14:01:55.107Z,23.37
2017-08-15T14:04:23.469Z,23.52
2017-08-15T14:06:51.818Z,23.61
2017-08-15T14:09:20.167Z,23.60
2017-08-15T14:11:48.504Z,23.68
2017-08-15T14:14:16.853Z,23.79
2017-08-15T14:16:45.249Z,23.73
2017-08-15T14:19:13.581Z,23.83
2017-08-15T14:21:41.936Z,23.84
2017-08-15T14:24:10.286Z,23.79
2017-08-15T14:26:38.629Z,23.87
2017-08-15T14:29:11.294Z,23.88
2017-08-15T14:31:40.100Z,23.91
2017-08-15T14:34:08.429Z,23.91
2017-08-15T14:36:36.788Z,23.85
2017-08-15T14:39:05.150Z,23.88
2017-08-15T14:41:33.491Z,23.76
2017-08-15T14:44:01.843Z,23.87
2017-08-15T14:46:30.172Z,23.88
2017-08-15T14:48:58.526Z,23.93
2017-08-15T14:51:26.857Z,24.04
2017-08-15T14:53:55.215Z,24.11
2017-08-15T14:56:23.569Z,24.12
2017-08-15T14:58:51.921Z,24.16
2017-08-15T15:01:20.301Z,24.17
2017-08-15T15:03:48.663Z,24.17
2017-08-15T15:06:17.015Z,24.28
2017-08-15T15:08:45.340Z,24.45
2017-08-15T15:11:13.794Z,24.93
2017-08-15T15:13:42.155Z,25.29
2017-08-15T15:16:10.590Z,25.33
2017-08-15T15:18:38.921Z,25.20
2017-08-15T15:21:07.270Z,25.27
2017-08-15T15:23:35.629Z,25.36
2017-08-15T15:26:03.959Z,25.49
2017-08-15T15:28:33.105Z,25.77
2017-08-15T15:31:01.434Z,25.92
2017-08-15T15:33:29.815Z,25.83
2017-08-15T15:35:58.193Z,25.70
2017-08-15T15:38:26.564Z,25.73
2017-08-15T15:40:54.951Z,25.76
2017-08-15T15:43:23.284Z,25.67
2017-08-15T15:45:53.768Z,25.44
2017-08-15T15:48:22.306Z,25.26
2017-08-15T15:50:51.158Z,25.19
2017-08-15T15:53:19.521Z,25.14
2017-08-15T15:55:48.691Z,24.97
2017-08-15T15:58:17.560Z,24.90
2017-08-15T16:00:45.887Z,24.91
2017-08-15T16:03:15.305Z,24.82
2017-08-15T16:05:43.667Z,24.79
2017-08-15T16:08:12.005Z,24.80
2017-08-15T16:10:40.352Z,24.78
2017-08-15T16:13:08.711Z,24.87
2017-08-15T16:15:37.903Z,24.87
2017-08-15T16:18:06.232Z,24.80
2017-08-15T16:20:34.657Z,24.72
2017-08-15T16:23:03.019Z,24.71
2017-08-15T16:25:31.364Z,24.77
2017-08-15T16:27:59.748Z,24.83
2017-08-15T16:30:28.085Z,24.88
2017-08-15T16:32:56.454Z,24.92
2017-08-15T16:35:24.798Z,24.97
2017-08-15T16:37:53.138Z,25.01
2017-08-15T16:40:21.491Z,24.98
2017-08-15T16:42:50.183Z,25.02
2017-08-15T16:45:18.564Z,24.87
2017-08-15T16:47:47.748Z,24.95
2017-08-15T16:50:16.089Z,25.00
2017-08-15T16:52:44.460Z,25.07
2017-08-15T16:55:12.800Z,25.16
2017-08-15T16:57:41.180Z,25.12
2017-08-15T17:00:09.562Z,25.04
2017-08-15T17:02:37.950Z,25.01
2017-08-15T17:05:06.334Z,25.04
2017-08-15T17:07:34.684Z,24.86
2017-08-15T17:10:03.411Z,24.79
2017-08-15T17:12:31.756Z,24.75
2017-08-15T17:15:00.080Z,24.68
2017-08-15T17:17:28.486Z,24.62
2017-08-15T17:19:56.822Z,24.57
2017-08-15T17:22:25.965Z,24.47
2017-08-15T17:24:54.312Z,24.44
2017-08-15T17:27:22.663Z,24.39
2017-08-15T17:29:51.038Z,24.39
2017-08-15T17:32:19.396Z,24.30
2017-08-15T17:34:47.755Z,24.29
2017-08-15T17:37:16.111Z,24.22
2017-08-15T17:39:44.599Z,24.08
2017-08-15T17:42:12.994Z,24.00
2017-08-15T17:44:41.968Z,23.91
2017-08-15T17:47:10.359Z,23.82
2017-08-15T17:49:43.424Z,23.77
2017-08-15T17:52:11.963Z,23.68
2017-08-15T17:54:40.289Z,23.68
2017-08-15T17:57:09.422Z,23.62
2017-08-15T17:59:37.793Z,23.57
2017-08-15T18:02:06.148Z,23.49
2017-08-15T18:04:34.512Z,23.43
2017-08-15T18:07:03.033Z,23.37
2017-08-15T18:09:31.416Z,23.34
2017-08-15T18:12:00.615Z,23.21
2017-08-15T18:14:28.983Z,23.07
2017-08-15T18:16:57.361Z,23.08
2017-08-15T18:19:25.725Z,22.96
2017-08-15T18:21:54.133Z,22.87
2017-08-15T18:24:22.476Z,22.92
2017-08-15T18:26:51.172Z,22.85
2017-08-15T18:29:19.537Z,22.74
2017-08-15T18:31:47.893Z,22.69
2017-08-15T18:34:16.364Z,22.55
2017-08-15T18:36:44.716Z,22.44
2017-08-15T18:39:13.086Z,22.45
2017-08-15T18:41:41.463Z,22.39
2017-08-15T18:44:09.883Z,22.31
2017-08-15T18:46:38.253Z,22.21
2017-08-15T18:49:06.650Z,22.22
2017-08-15T18:51:35.037Z,22.11
2017-08-15T18:54:03.384Z,22.02
2017-08-15T18:56:31.780Z,22.08
2017-08-15T18:59:00.117Z,21.97
2017-08-15T19:01:31.916Z,21.81
2017-08-15T19:04:00.250Z,21.82
2017-08-15T19:06:28.625Z,21.72
2017-08-15T19:08:56.985Z,21.65
2017-08-15T19:11:25.545Z,21.57
2017-08-15T19:13:54.561Z,21.52
2017-08-15T19:16:22.927Z,21.38
2017-08-15T19:18:52.598Z,21.29
2017-08-15T19:21:21.204Z,21.31
2017-08-15T19:23:49.558Z,21.33
2017-08-15T19:26:17.907Z,21.28
2017-08-15T19:28:46.276Z,21.20
2017-08-15T19:31:14.655Z,21.24
2017-08-15T19:33:43.496Z,21.10
2017-08-15T19:36:11.864Z,21.13
2017-08-15T19:38:40.216Z,21.00
2017-08-15T19:41:09.503Z,20.92
2017-08-15T19:43:37.873Z,20.95
2017-08-15T19:46:06.282Z,20.89
2017-08-15T19:48:35.433Z,20.91
2017-08-15T19:51:03.793Z,20.83
2017-08-15T19:53:32.468Z,20.85
2017-08-15T19:56:00.799Z,20.78
2017-08-15T19:58:29.135Z,20.82
2017-08-15T20:00:57.537Z,20.80
2017-08-15T20:03:25.870Z,20.78
2017-08-15T20:05:54.978Z,20.74
2017-08-15T20:08:23.373Z,20.70
2017-08-15T20:10:51.731Z,20.80
2017-08-15T20:13:20.098Z,20.80
2017-08-15T20:15:48.452Z,20.77
2017-08-15T20:18:16.825Z,20.83
2017-08-15T20:20:45.185Z,20.91
2017-08-15T20:23:13.999Z,20.99
2017-08-15T20:25:42.339Z,21.03
2017-08-15T20:28:10.677Z,21.06
2017-08-15T20:30:39.033Z,21.12
2017-08-15T20:33:07.370Z,20.98
2017-08-15T20:35:36.090Z,20.94
2017-08-15T20:38:04.871Z,20.94
2017-08-15T20:40:33.734Z,20.94
2017-08-15T20:43:03.482Z,20.75
2017-08-15T20:45:32.346Z,20.69
2017-08-15T20:48:01.304Z,20.67
2017-08-15T20:50:30.229Z,20.49
2017-08-15T20:52:59.165Z,20.56
2017-08-15T20:55:28.108Z,20.41
2017-08-15T20:57:56.914Z,20.43
2017-08-15T21:00:26.242Z,20.31
2017-08-15T21:02:54.588Z,20.31
2017-08-15T21:05:22.936Z,20.14
2017-08-15T21:07:51.269Z,20.16
2017-08-15T21:10:19.622Z,20.16
2017-08-15T21:12:47.977Z,20.05
2017-08-15T21:15:16.323Z,20.02
2017-08-15T21:17:44.686Z,19.99
2017-08-15T21:20:13.016Z,20.04
2017-08-15T21:22:41.387Z,20.08
2017-08-15T21:25:09.725Z,20.01
2017-08-15T21:27:38.141Z,19.87
2017-08-15T21:30:06.490Z,20.00
2017-08-15T21:32:34.821Z,19.94
2017-08-15T21:35:03.156Z,19.92
2017-08-15T21:37:31.502Z,19.85
2017-08-15T21:39:59.847Z,19.84
2017-08-15T21:42:28.185Z,19.89
2017-08-15T21:44:56.529Z,19.77
2017-08-15T21:47:24.887Z,19.78
2017-08-15T21:49:53.228Z,19.79
2017-08-15T21:52:22.008Z,19.79
2017-08-15T21:54:50.337Z,19.61
2017-08-15T21:57:18.700Z,19.54
2017-08-15T21:59:47.425Z,19.57
2017-08-15T22:02:21.456Z,19.57
2017-08-15T22:04:49.790Z,19.45
2017-08-15T22:07:18.146Z,19.43
2017-08-15T22:09:46.492Z,19.41
2017-08-15T22:12:14.839Z,19.34
2017-08-15T22:14:43.205Z,19.41
2017-08-15T22:17:12.654Z,19.33
2017-08-15T22:19:41.005Z,19.15
2017-08-15T22:22:09.349Z,19.14
2017-08-15T22:24:37.708Z,19.28
2017-08-15T22:27:06.037Z,19.20
2017-08-15T22:29:34.440Z,19.29
2017-08-15T22:32:04.474Z,19.15
2017-08-15T22:34:32.800Z,18.96
2017-08-15T22:37:01.133Z,18.95
2017-08-15T22:39:29.495Z,19.09
2017-08-15T22:41:58.639Z,19.07
2017-08-15T22:44:26.994Z,19.16
2017-08-15T22:46:55.362Z,19.16
2017-08-15T22:49:23.719Z,19.07
2017-08-15T22:51:52.069Z,19.09
2017-08-15T22:54:20.457Z,19.14
2017-08-15T22:56:48.808Z,19.18
2017-08-15T22:59:17.419Z,19.05
2017-08-15T23:01:45.735Z,18.90
2017-08-15T23:04:14.785Z,18.96
2017-08-15T23:06:43.593Z,19.00
2017-08-15T23:09:11.933Z,19.04
2017-08-15T23:11:40.354Z,18.97
2017-08-15T23:14:08.725Z,18.98
2017-08-15T23:16:37.460Z,18.98
2017-08-15T23:19:05.842Z,18.85
2017-08-15T23:21:34.178Z,18.91
2017-08-15T23:24:02.533Z,18.98
2017-08-15T23:26:30.879Z,18.86
2017-08-15T23:28:59.229Z,18.88
2017-08-15T23:31:27.930Z,18.91
2017-08-15T23:33:57.083Z,19.01
2017-08-15T23:36:25.440Z,18.86
2017-08-15T23:38:53.800Z,18.87
2017-08-15T23:41:22.151Z,18.93
2017-08-15T23:43:50.494Z,18.85
2017-08-15T23:46:18.873Z,18.76
2017-08-15T23:48:47.207Z,18.73
2017-08-15T23:51:16.323Z,18.80
2017-08-15T23:53:44.663Z,18.81
2017-08-15T23:56:13.006Z,18.74
2017-08-15T23:58:41.354Z,18.73
